Time;durP1;ratioP1;P1;durP2;ratioP2;P2;SDS_P1;SDS_P2;PMS_P1;PMS_P2;Temp;Humidity;BMP_temperature;BMP_pressure;BME280_temperature;BME280_humidity;BME280_pressure;Samples;Min_cycle;Max_cycle;Signal;HPM_P1;HPM_P2
2021/06/25 00:00:57;;;;;;;;;;;;;;;14.66;88.67;96433.75;5078800;28;20300;-72
2021/06/25 00:03:22;;;;;;;;;;;;;;;14.57;89.22;96442.41;5045644;28;20306;-72
2021/06/25 00:05:50;;;;;;;;;;;;;;;14.31;91.44;96438.75;5078982;28;19926;-71
2021/06/25 00:08:15;;;;;;;;;;;;;;;14.26;92.15;96441.34;5079848;28;19928;-71
2021/06/25 00:10:40;;;;;;;;;;;;;;;14.25;92.90;96445.84;5080722;28;19924;-71
2021/06/25 00:13:06;;;;;;;;;;;;;;;14.42;92.58;96441.25;5078078;28;19920;-71
2021/06/25 00:15:31;;;;;;;;;;;;;;;14.35;92.28;96440.63;5081755;28;19921;-71
2021/06/25 00:17:58;;;;;;;;;;;;;;;14.27;92.30;96442.97;5078601;28;19989;-72
2021/06/25 00:20:24;;;;;;;;;;;;;;;14.44;92.48;96444.41;5075686;28;19920;-72
2021/06/25 00:22:51;;;;;;;;;;;;;;;14.37;93.46;96443.84;5075976;28;19927;-71
2021/06/25 00:25:17;;;;;;;;;;;;;;;14.38;92.11;96444.66;5056345;28;19920;-72
2021/06/25 00:27:42;;;;;;;;;;;;;;;14.34;92.06;96439.06;5075672;28;19962;-71
2021/06/25 00:30:08;;;;;;;;;;;;;;;14.44;91.57;96441.78;5074125;28;20023;-71
2021/06/25 00:32:34;;;;;;;;;;;;;;;14.47;92.35;96429.91;5075786;28;19932;-71
2021/06/25 00:34:59;;;;;;;;;;;;;;;14.48;91.69;96433.38;5074180;28;20027;-71
2021/06/25 00:37:25;;;;;;;;;;;;;;;14.55;91.18;96440.03;5075628;28;19921;-71
2021/06/25 00:39:52;;;;;;;;;;;;;;;14.50;91.29;96439.19;5073811;28;19924;-70
2021/06/25 00:42:18;;;;;;;;;;;;;;;14.48;91.71;96446.59;5073321;28;19985;-70
2021/06/25 00:44:43;;;;;;;;;;;;;;;14.53;90.34;96438.66;5075556;28;19928;-71
2021/06/25 00:47:09;;;;;;;;;;;;;;;14.43;90.92;96440.19;5075280;28;19927;-71
2021/06/25 00:49:34;;;;;;;;;;;;;;;14.44;91.41;96446.28;5073745;28;20034;-71
2021/06/25 00:52:01;;;;;;;;;;;;;;;14.37;90.97;96445.69;5073790;28;20019;-71
2021/06/25 00:54:27;;;;;;;;;;;;;;;14.35;91.00;96443.28;5075366;28;19920;-71
2021/06/25 00:56:55;;;;;;;;;;;;;;;14.35;91.20;96440.63;5074997;28;20327;-71
2021/06/25 00:59:20;;;;;;;;;;;;;;;14.37;91.12;96454.44;5074661;28;19920;-71
2021/06/25 01:01:45;;;;;;;;;;;;;;;14.29;91.06;96446.94;5074853;28;19932;-71
2021/06/25 01:04:12;;;;;;;;;;;;;;;14.36;91.49;96452.81;5075055;28;19920;-71
2021/06/25 01:06:38;;;;;;;;;;;;;;;14.39;90.03;96454.19;5075031;28;20343;-71
2021/06/25 01:09:03;;;;;;;;;;;;;;;14.31;90.05;96450.13;5073859;28;19924;-71
2021/06/25 01:11:30;;;;;;;;;;;;;;;14.29;90.66;96446.94;5075015;28;19957;-71
2021/06/25 01:13:57;;;;;;;;;;;;;;;14.35;90.71;96447.78;5074846;28;20383;-72
2021/06/25 01:16:23;;;;;;;;;;;;;;;14.41;90.58;96444.91;5074525;28;20090;-72
2021/06/25 01:18:48;;;;;;;;;;;;;;;14.36;90.67;96441.44;5074364;28;19924;-71
2021/06/25 01:21:17;;;;;;;;;;;;;;;14.37;90.31;96441.19;5074188;28;19938;-71
2021/06/25 01:23:43;;;;;;;;;;;;;;;14.28;90.33;96440.06;5073590;28;20200;-71
2021/06/25 01:26:09;;;;;;;;;;;;;;;14.41;90.14;96439.63;5076278;28;20296;-71
2021/06/25 01:28:35;;;;;;;;;;;;;;;14.45;89.86;96446.00;5087318;28;19970;-71
2021/06/25 01:31:01;;;;;;;;;;;;;;;14.39;90.18;96443.59;5081377;28;19928;-71
2021/06/25 01:33:27;;;;;;;;;;;;;;;14.37;90.17;96443.84;5111373;22;19919;-65
2021/06/25 01:35:55;;;;;;;;;;;;;;;14.29;90.62;96439.00;5074204;28;20512;-65
2021/06/25 01:38:22;;;;;;;;;;;;;;;14.40;90.43;96443.31;5092813;28;19927;-65
2021/06/25 01:40:47;;;;;;;;;;;;;;;14.56;89.98;96440.81;5074216;28;19920;-65
2021/06/25 01:43:15;;;;;;;;;;;;;;;14.50;89.75;96433.91;5092457;28;19920;-65
2021/06/25 01:45:42;;;;;;;;;;;;;;;14.34;90.27;96436.41;5092823;28;19927;-65
2021/06/25 01:48:08;;;;;;;;;;;;;;;14.36;90.57;96436.94;5092580;28;19958;-65
2021/06/25 01:50:39;;;;;;;;;;;;;;;14.27;90.86;96427.09;5074181;28;19963;-65
2021/06/25 01:53:05;;;;;;;;;;;;;;;14.40;90.49;96438.03;5092413;28;19920;-65
2021/06/25 01:55:41;;;;;;;;;;;;;;;14.42;90.06;96435.13;5074538;28;19959;-65
2021/06/25 01:58:08;;;;;;;;;;;;;;;14.34;90.69;96428.47;5093057;28;19920;-65
2021/06/25 02:00:34;;;;;;;;;;;;;;;14.38;90.53;96424.28;5094500;28;19920;-64
2021/06/25 02:02:59;;;;;;;;;;;;;;;14.32;90.31;96425.28;5096583;28;19923;-64
2021/06/25 02:05:24;;;;;;;;;;;;;;;14.40;90.30;96431.94;5093829;28;20401;-64
2021/06/25 02:07:50;;;;;;;;;;;;;;;14.43;89.62;96426.94;5092776;28;19920;-64
2021/06/25 02:10:18;;;;;;;;;;;;;;;14.51;89.47;96430.19;5092008;28;19973;-65
2021/06/25 02:12:47;;;;;;;;;;;;;;;14.40;89.83;96422.16;5092331;28;20019;-65
2021/06/25 02:15:13;;;;;;;;;;;;;;;14.44;90.01;96422.44;5074083;28;19970;-65
2021/06/25 02:17:39;;;;;;;;;;;;;;;14.47;89.45;96418.47;5097147;28;19924;-65
2021/06/25 02:20:05;;;;;;;;;;;;;;;14.68;88.99;96413.09;5098995;28;20313;-65
2021/06/25 02:22:30;;;;;;;;;;;;;;;14.57;88.32;96421.22;5096363;28;19927;-65
2021/06/25 02:24:58;;;;;;;;;;;;;;;14.47;88.81;96418.47;5092242;28;19920;-65
2021/06/25 02:27:23;;;;;;;;;;;;;;;14.46;89.06;96420.34;5091990;28;19920;-65
2021/06/25 02:29:50;;;;;;;;;;;;;;;14.59;88.84;96427.88;5091756;28;19973;-65
2021/06/25 02:32:18;;;;;;;;;;;;;;;14.45;88.72;96418.75;5073763;28;20040;-65
2021/06/25 02:34:46;;;;;;;;;;;;;;;14.57;88.35;96422.03;5092032;28;19920;-65
2021/06/25 02:37:14;;;;;;;;;;;;;;;14.46;88.54;96425.63;5092071;28;20276;-64
2021/06/25 02:39:39;;;;;;;;;;;;;;;14.58;88.39;96422.81;5091843;28;19927;-64
2021/06/25 02:42:05;;;;;;;;;;;;;;;14.52;88.17;96423.84;5091784;28;19946;-64
2021/06/25 02:44:33;;;;;;;;;;;;;;;14.65;87.82;96420.75;5091983;28;20452;-65
2021/06/25 02:46:59;;;;;;;;;;;;;;;14.57;88.40;96427.31;5092528;28;20434;-64
2021/06/25 02:49:25;;;;;;;;;;;;;;;14.43;88.59;96415.56;5095913;28;19924;-64
2021/06/25 02:51:50;;;;;;;;;;;;;;;14.59;87.81;96422.59;5095800;28;19943;-64
2021/06/25 02:54:16;;;;;;;;;;;;;;;14.66;88.02;96425.00;5095836;28;20402;-64
2021/06/25 02:56:43;;;;;;;;;;;;;;;14.65;87.79;96423.41;5095182;28;20375;-64
2021/06/25 02:59:11;;;;;;;;;;;;;;;14.64;87.84;96419.19;5097296;28;19924;-64
2021/06/25 03:01:39;;;;;;;;;;;;;;;14.55;88.18;96418.84;5101866;28;20114;-64
2021/06/25 03:04:06;;;;;;;;;;;;;;;14.53;88.14;96417.50;5101881;28;19920;-64
2021/06/25 03:06:32;;;;;;;;;;;;;;;14.51;88.03;96411.66;5102330;28;19919;-64
2021/06/25 03:08:57;;;;;;;;;;;;;;;14.49;88.48;96411.13;5102313;28;19919;-64
2021/06/25 03:11:22;;;;;;;;;;;;;;;14.52;88.33;96418.56;5102390;28;20237;-65
2021/06/25 03:13:50;;;;;;;;;;;;;;;14.60;87.85;96415.44;5099579;28;19928;-64
2021/06/25 03:16:16;;;;;;;;;;;;;;;14.54;88.11;96416.47;5098722;28;19987;-64
2021/06/25 03:18:44;;;;;;;;;;;;;;;14.53;87.88;96414.84;5100183;28;19962;-65
2021/06/25 03:21:10;;;;;;;;;;;;;;;14.56;88.38;96414.34;5100850;28;19931;-64
2021/06/25 03:23:36;;;;;;;;;;;;;;;14.61;87.99;96420.47;5096430;28;19919;-64
2021/06/25 03:26:01;;;;;;;;;;;;;;;14.64;88.20;96406.72;5095687;28;19977;-65
2021/06/25 03:28:29;;;;;;;;;;;;;;;14.57;87.60;96408.78;5095046;28;19920;-65
2021/06/25 03:30:57;;;;;;;;;;;;;;;14.69;87.41;96406.75;5094724;28;19942;-64
2021/06/25 03:33:23;;;;;;;;;;;;;;;14.63;88.09;96405.13;5094571;28;20244;-65
2021/06/25 03:35:48;;;;;;;;;;;;;;;14.56;88.29;96409.84;5094945;28;19931;-64
2021/06/25 03:38:15;;;;;;;;;;;;;;;14.55;88.53;96407.47;5094775;28;20353;-65
2021/06/25 03:40:40;;;;;;;;;;;;;;;14.62;88.22;96402.72;5094471;28;19926;-65
2021/06/25 03:43:08;;;;;;;;;;;;;;;14.56;88.00;96403.75;5076247;28;19920;-65
2021/06/25 03:45:33;;;;;;;;;;;;;;;14.73;87.90;96404.38;5094652;28;19958;-64
2021/06/25 03:47:59;;;;;;;;;;;;;;;14.88;87.15;96409.75;5094851;28;19920;-64
2021/06/25 03:50:24;;;;;;;;;;;;;;;14.71;87.93;96414.44;5094565;28;19928;-64
2021/06/25 03:52:50;;;;;;;;;;;;;;;14.69;88.33;96408.63;5094645;28;19920;-65
2021/06/25 03:55:17;;;;;;;;;;;;;;;14.69;88.56;96408.63;5094556;28;20303;-64
2021/06/25 03:57:43;;;;;;;;;;;;;;;14.55;89.05;96407.47;5094360;28;19943;-64
2021/06/25 04:00:12;;;;;;;;;;;;;;;14.60;89.04;96402.19;5076102;28;20306;-64
2021/06/25 04:02:38;;;;;;;;;;;;;;;14.59;88.55;96409.34;5075979;28;20383;-65
2021/06/25 04:05:07;;;;;;;;;;;;;;;14.47;88.36;96405.25;5094246;28;19927;-64
2021/06/25 04:07:32;;;;;;;;;;;;;;;14.57;88.62;96406.13;5094165;28;19920;-64
2021/06/25 04:09:58;;;;;;;;;;;;;;;14.64;87.92;96411.22;5094123;28;19930;-64
2021/06/25 04:12:24;;;;;;;;;;;;;;;14.74;87.91;96416.56;5094401;28;20303;-64
2021/06/25 04:14:50;;;;;;;;;;;;;;;14.71;87.65;96411.78;5094189;28;19920;-65
2021/06/25 04:17:15;;;;;;;;;;;;;;;14.75;87.67;96414.75;5094220;28;19946;-65
2021/06/25 04:19:40;;;;;;;;;;;;;;;14.70;87.81;96408.34;5095125;28;19927;-65
2021/06/25 04:22:06;;;;;;;;;;;;;;;14.76;87.54;96409.19;5099674;28;20386;-65
2021/06/25 04:24:33;;;;;;;;;;;;;;;14.91;86.94;96409.25;5077532;28;19960;-65
2021/06/25 04:26:59;;;;;;;;;;;;;;;14.75;87.25;96407.59;5094698;28;19924;-65
2021/06/25 04:29:28;;;;;;;;;;;;;;;14.84;87.27;96415.81;5093838;28;19920;-66
2021/06/25 04:31:54;;;;;;;;;;;;;;;14.90;86.97;96418.22;5093723;28;20306;-65
2021/06/25 04:34:20;;;;;;;;;;;;;;;14.83;86.78;96420.31;5094084;28;20324;-65
2021/06/25 04:36:46;;;;;;;;;;;;;;;14.91;86.12;96427.78;5093959;28;19953;-65
2021/06/25 04:39:11;;;;;;;;;;;;;;;14.96;86.31;96425.19;5093624;28;19985;-65
2021/06/25 04:41:37;;;;;;;;;;;;;;;15.04;85.97;96423.88;5093923;28;19963;-65
2021/06/25 04:44:02;;;;;;;;;;;;;;;14.96;86.94;96424.38;5093408;28;20023;-66
2021/06/25 04:46:29;;;;;;;;;;;;;;;14.89;86.92;96423.78;5093495;28;19927;-65
2021/06/25 04:48:57;;;;;;;;;;;;;;;14.96;87.53;96424.38;5093509;28;19974;-65
2021/06/25 04:51:25;;;;;;;;;;;;;;;14.80;88.40;96420.84;5093438;28;20383;-65
2021/06/25 04:53:52;;;;;;;;;;;;;;;14.79;88.42;96423.75;5093580;28;19920;-65
2021/06/25 04:56:17;;;;;;;;;;;;;;;14.82;88.50;96424.03;5093357;28;19919;-65
2021/06/25 04:58:42;;;;;;;;;;;;;;;14.87;88.55;96416.13;5093214;28;20019;-65
2021/06/25 05:01:08;;;;;;;;;;;;;;;14.88;87.94;96417.69;5074970;28;20190;-65
2021/06/25 05:03:36;;;;;;;;;;;;;;;14.82;87.56;96417.94;5093530;28;19919;-66
2021/06/25 05:06:02;;;;;;;;;;;;;;;14.89;88.18;96426.44;5093558;28;19931;-65
2021/06/25 05:08:27;;;;;;;;;;;;;;;15.09;87.66;96423.09;5093777;28;19920;-66
2021/06/25 05:10:53;;;;;;;;;;;;;;;15.22;86.41;96426.06;5092687;28;19928;-66
2021/06/25 05:13:18;;;;;;;;;;;;;;;15.29;86.45;96422.38;5093254;28;20434;-65
2021/06/25 05:15:43;;;;;;;;;;;;;;;15.45;85.69;96418.72;5074769;28;19963;-66
2021/06/25 05:18:13;;;;;;;;;;;;;;;15.23;86.17;96419.72;5093047;28;20398;-66
2021/06/25 05:20:40;;;;;;;;;;;;;;;15.39;85.60;96412.63;5092628;28;19965;-66
2021/06/25 05:23:05;;;;;;;;;;;;;;;15.43;86.28;96408.38;5092781;28;19920;-66
2021/06/25 05:25:30;;;;;;;;;;;;;;;15.62;84.50;96406.03;5093006;28;20015;-66
2021/06/25 05:27:58;;;;;;;;;;;;;;;15.39;84.67;96407.31;5074931;28;20379;-66
2021/06/25 05:30:26;;;;;;;;;;;;;;;15.45;84.54;96406.25;5092650;28;19920;-66
2021/06/25 05:32:52;;;;;;;;;;;;;;;15.33;84.36;96405.69;5092560;28;19951;-65
2021/06/25 05:35:17;;;;;;;;;;;;;;;15.26;85.10;96413.09;5092721;28;19955;-65
2021/06/25 05:37:44;;;;;;;;;;;;;;;15.14;85.16;96415.97;5092623;28;19920;-65
2021/06/25 05:40:10;;;;;;;;;;;;;;;15.17;84.99;96410.16;5092175;28;19928;-65
2021/06/25 05:42:38;;;;;;;;;;;;;;;15.13;85.35;96418.88;5092052;28;20006;-65
2021/06/25 05:45:04;;;;;;;;;;;;;;;15.22;85.31;96415.44;5095056;28;19943;-65
2021/06/25 05:47:30;;;;;;;;;;;;;;;15.23;85.42;96421.56;5097183;28;19959;-64
2021/06/25 05:49:58;;;;;;;;;;;;;;;15.35;85.13;96424.78;5095412;28;20130;-65
2021/06/25 05:52:23;;;;;;;;;;;;;;;15.14;86.06;96415.97;5092093;28;19920;-65
2021/06/25 05:54:50;;;;;;;;;;;;;;;15.25;85.38;96411.50;5092150;28;19920;-65
2021/06/25 05:57:16;;;;;;;;;;;;;;;15.30;84.85;96423.97;5092295;28;19920;-65
2021/06/25 05:59:41;;;;;;;;;;;;;;;15.32;85.16;96427.94;5092241;28;19919;-65
2021/06/25 06:02:07;;;;;;;;;;;;;;;15.40;84.89;96426.66;5073717;28;19920;-65
2021/06/25 06:04:32;;;;;;;;;;;;;;;15.29;84.89;96427.69;5073866;28;20018;-64
2021/06/25 06:06:57;;;;;;;;;;;;;;;15.57;84.19;96423.78;5091816;28;19919;-64
2021/06/25 06:09:24;;;;;;;;;;;;;;;15.68;83.48;96428.09;5091749;28;19984;-65
2021/06/25 06:11:50;;;;;;;;;;;;;;;15.77;82.19;96426.50;5092203;28;19947;-64
2021/06/25 06:14:18;;;;;;;;;;;;;;;15.96;81.83;96437.41;5092125;28;19931;-65
2021/06/25 06:16:43;;;;;;;;;;;;;;;15.92;81.97;96434.47;5092102;28;19920;-65
2021/06/25 06:19:09;;;;;;;;;;;;;;;15.80;81.69;96433.13;5091730;28;20453;-65
2021/06/25 06:32:42;;;;;;;;;;;;;;;16.28;79.68;96434.50;5095890;28;19927;-66
2021/06/25 06:35:08;;;;;;;;;;;;;;;16.28;79.75;96431.84;5096073;28;19927;-66
2021/06/25 06:37:34;;;;;;;;;;;;;;;16.38;79.99;96434.50;5095838;28;19920;-66
2021/06/25 06:39:59;;;;;;;;;;;;;;;16.56;78.90;96441.09;5096912;28;19977;-67
2021/06/25 06:42:26;;;;;;;;;;;;;;;16.68;78.35;96433.66;5078662;28;19939;-66
2021/06/25 06:44:51;;;;;;;;;;;;;;;17.00;77.73;96433.34;5098304;28;19920;-66
2021/06/25 06:47:16;;;;;;;;;;;;;;;16.96;77.62;96426.97;5097024;28;19920;-65
2021/06/25 06:49:44;;;;;;;;;;;;;;;16.96;77.38;96436.81;5095549;28;20377;-65
2021/06/25 06:52:10;;;;;;;;;;;;;;;17.03;77.01;96434.66;5095921;28;20352;-66
2021/06/25 06:54:35;;;;;;;;;;;;;;;17.19;76.38;96424.78;5077272;28;19920;-66
2021/06/25 06:57:00;;;;;;;;;;;;;;;17.44;75.56;96426.53;5095612;28;19920;-66
2021/06/25 06:59:27;;;;;;;;;;;;;;;17.33;75.45;96436.41;5095424;28;20402;-65
2021/06/25 07:01:53;;;;;;;;;;;;;;;17.25;76.82;96436.97;5095532;28;20022;-65
2021/06/25 07:04:18;;;;;;;;;;;;;;;17.53;74.37;96430.97;5095180;28;19924;-66
2021/06/25 07:06:46;;;;;;;;;;;;;;;17.69;74.32;96433.56;5095357;28;19936;-66
2021/06/25 07:09:11;;;;;;;;;;;;;;;17.58;74.11;96435.47;5095136;28;19943;-65
2021/06/25 07:11:37;;;;;;;;;;;;;;;17.57;73.94;96437.34;5095415;28;20331;-65
2021/06/25 07:14:02;;;;;;;;;;;;;;;17.39;74.41;96439.84;5095589;28;20379;-66
2021/06/25 07:16:29;;;;;;;;;;;;;;;17.56;73.52;96438.41;5095247;28;19920;-66
2021/06/25 07:18:54;;;;;;;;;;;;;;;17.30;74.82;96434.28;5094961;28;19919;-66
2021/06/25 07:21:20;;;;;;;;;;;;;;;17.38;74.56;96441.72;5095275;28;19920;-66
2021/06/25 07:23:48;;;;;;;;;;;;;;;17.42;74.25;96434.75;5094944;28;19982;-66
2021/06/25 07:26:17;;;;;;;;;;;;;;;17.51;73.59;96435.78;5076993;28;19963;-66
2021/06/25 07:28:42;;;;;;;;;;;;;;;17.99;72.78;96435.28;5094768;28;19920;-66
2021/06/25 07:31:10;;;;;;;;;;;;;;;18.04;71.51;96428.03;5076485;28;19919;-66
2021/06/25 07:33:37;;;;;;;;;;;;;;;18.15;70.94;96427.97;5097072;22;19924;-68
2021/06/25 07:36:02;;;;;;;;;;;;;;;18.99;68.88;96434.63;5057633;28;19920;-67
2021/06/25 07:38:28;;;;;;;;;;;;;;;18.99;68.89;96433.84;5075650;28;20028;-69
2021/06/25 07:40:53;;;;;;;;;;;;;;;19.63;66.93;96430.69;5075380;28;19924;-69
2021/06/25 07:43:19;;;;;;;;;;;;;;;19.60;65.74;96427.81;5056975;28;19921;-69
2021/06/25 07:45:44;;;;;;;;;;;;;;;19.44;66.23;96423.72;5075547;28;19970;-69
2021/06/25 07:48:10;;;;;;;;;;;;;;;19.59;66.68;96424.34;5074995;28;19928;-68
2021/06/25 07:50:39;;;;;;;;;;;;;;;20.37;62.82;96414.88;5074895;28;19920;-69
2021/06/25 07:53:10;;;;;;;;;;;;;;;20.16;64.46;96416.31;5074851;28;20303;-69
2021/06/25 07:55:42;;;;;;;;;;;;;;;21.01;61.10;96415.09;5075040;28;19966;-69
2021/06/25 07:58:07;;;;;;;;;;;;;;;20.15;64.57;96420.84;5075110;28;19946;-68
2021/06/25 08:00:33;;;;;;;;;;;;;;;20.05;66.78;96415.66;5074914;28;19921;-69
2021/06/25 08:03:00;;;;;;;;;;;;;;;18.92;68.57;96420.88;5075386;28;19943;-71
2021/06/25 08:05:26;;;;;;;;;;;;;;;18.24;70.39;96420.94;5058771;28;20379;-68
2021/06/25 08:07:52;;;;;;;;;;;;;;;18.79;69.89;96424.22;5075227;28;19920;-68
2021/06/25 08:10:21;;;;;;;;;;;;;;;18.98;68.90;96416.28;5074847;28;19950;-69
2021/06/25 08:12:46;;;;;;;;;;;;;;;19.43;68.15;96420.28;5057060;28;19927;-68
2021/06/25 08:15:14;;;;;;;;;;;;;;;19.33;68.70;96417.75;5075034;28;20334;-69
2021/06/25 08:17:39;;;;;;;;;;;;;;;19.53;67.25;96414.00;5074516;28;20023;-69
2021/06/25 08:20:06;;;;;;;;;;;;;;;20.14;64.31;96421.16;5056072;28;19990;-69
2021/06/25 08:22:31;;;;;;;;;;;;;;;19.89;64.68;96408.97;5074915;28;20346;-68
2021/06/25 08:24:58;;;;;;;;;;;;;;;20.76;61.56;96407.56;5074870;28;20020;-69
2021/06/25 08:27:23;;;;;;;;;;;;;;;21.66;58.95;96408.72;5074444;28;19920;-69
2021/06/25 08:29:49;;;;;;;;;;;;;;;22.95;55.77;96406.13;5074251;28;20019;-69
2021/06/25 08:32:14;;;;;;;;;;;;;;;22.89;55.66;96396.63;5074307;28;20437;-69
2021/06/25 08:34:40;;;;;;;;;;;;;;;22.91;55.67;96393.63;5056543;28;19931;-70
2021/06/25 08:37:06;;;;;;;;;;;;;;;22.34;55.67;96398.88;5074983;28;19920;-69
2021/06/25 08:39:31;;;;;;;;;;;;;;;22.63;55.52;96393.81;5074103;28;20423;-69
2021/06/25 08:42:02;;;;;;;;;;;;;;;21.05;58.83;96394.72;5074061;28;19920;-69
2021/06/25 08:44:30;;;;;;;;;;;;;;;20.73;60.23;96403.59;5074224;28;20388;-72
2021/06/25 08:46:56;;;;;;;;;;;;;;;20.46;60.16;96412.38;5075120;28;19966;-70
2021/06/25 08:49:25;;;;;;;;;;;;;;;20.18;60.36;96398.91;5075046;28;20342;-70
2021/06/25 08:51:51;;;;;;;;;;;;;;;20.99;57.67;96398.56;5056862;28;19921;-70
2021/06/25 08:54:16;;;;;;;;;;;;;;;21.51;55.77;96399.13;5076001;28;20342;-70
2021/06/25 08:56:42;;;;;;;;;;;;;;;22.08;53.41;96398.66;5074796;28;20345;-71
2021/06/25 08:59:08;;;;;;;;;;;;;;;21.51;54.58;96401.81;5074711;28;19920;-70
2021/06/25 09:01:37;;;;;;;;;;;;;;;21.44;56.16;96401.44;5073949;28;19967;-68
2021/06/25 09:04:03;;;;;;;;;;;;;;;21.82;54.59;96399.25;5074392;28;19921;-73
2021/06/25 09:06:29;;;;;;;;;;;;;;;22.21;53.87;96403.97;5074186;28;20292;-69
2021/06/25 09:09:07;;;;;;;;;;;;;;;22.14;54.26;96402.81;5073935;28;19926;-72
2021/06/25 09:11:34;;;;;;;;;;;;;;;22.18;54.23;96409.94;5056340;28;19921;-71
2021/06/25 09:14:03;;;;;;;;;;;;;;;21.65;55.92;96412.50;5075841;28;19920;-71
2021/06/25 09:16:31;;;;;;;;;;;;;;;21.70;54.69;96413.16;5074185;28;19963;-69
2021/06/25 09:19:01;;;;;;;;;;;;;;;21.90;54.06;96413.78;5055667;28;19921;-70
2021/06/25 09:21:27;;;;;;;;;;;;;;;21.98;53.13;96407.72;5073620;28;19982;-69
2021/06/25 09:23:52;;;;;;;;;;;;;;;21.64;55.78;96411.69;5073888;28;20399;-70
2021/06/25 09:26:21;;;;;;;;;;;;;;;21.83;55.19;96419.56;5074120;28;19995;-69
2021/06/25 09:28:47;;;;;;;;;;;;;;;22.11;53.40;96414.91;5073249;28;19966;-69
2021/06/25 09:31:13;;;;;;;;;;;;;;;22.51;51.47;96418.50;5073692;28;19920;-69
2021/06/25 09:33:43;;;;;;;;;;;;;;;22.78;50.48;96406.81;5073458;28;20014;-69
2021/06/25 09:36:18;;;;;;;;;;;;;;;23.77;49.02;96409.16;5075315;28;19927;-71
2021/06/25 09:38:43;;;;;;;;;;;;;;;24.26;48.12;96410.56;5074604;28;19920;-72
2021/06/25 09:41:18;;;;;;;;;;;;;;;23.70;47.73;96408.84;5073276;28;19924;-70
2021/06/25 09:43:54;;;;;;;;;;;;;;;23.72;48.59;96404.72;5073348;28;20379;-69
2021/06/25 09:46:32;;;;;;;;;;;;;;;23.78;47.77;96406.16;5073616;28;19920;-69
2021/06/25 09:49:00;;;;;;;;;;;;;;;23.42;48.62;96405.63;5082183;28;19947;-69
2021/06/25 09:51:28;;;;;;;;;;;;;;;23.23;49.10;96404.00;5074096;28;20019;-69
2021/06/25 09:54:09;;;;;;;;;;;;;;;23.03;49.19;96405.38;5073099;28;19920;-69
2021/06/25 09:56:39;;;;;;;;;;;;;;;23.24;48.84;96402.09;5073007;28;19920;-69
2021/06/25 10:01:49;;;;;;;;;;;;;;;22.63;49.88;96404.53;5073218;28;19978;-70
2021/06/25 10:04:15;;;;;;;;;;;;;;;22.56;50.12;96401.50;5073913;28;19920;-69
2021/06/25 10:06:42;;;;;;;;;;;;;;;22.14;51.32;96400.94;5073074;28;19924;-69
2021/06/25 10:09:07;;;;;;;;;;;;;;;22.79;49.41;96403.03;5073336;28;19921;-69
2021/06/25 10:11:33;;;;;;;;;;;;;;;22.68;50.62;96407.09;5055037;28;19978;-68
2021/06/25 10:13:59;;;;;;;;;;;;;;;22.83;49.69;96410.47;5055225;28;20392;-69
2021/06/25 10:16:26;;;;;;;;;;;;;;;23.10;49.35;96407.59;5073170;28;20039;-68
2021/06/25 10:18:52;;;;;;;;;;;;;;;23.16;49.24;96413.63;5073065;28;19924;-69
2021/06/25 10:21:20;;;;;;;;;;;;;;;22.79;49.09;96403.03;5072807;28;19998;-69
2021/06/25 10:23:46;;;;;;;;;;;;;;;22.79;49.66;96408.38;5073058;28;19920;-69
2021/06/25 10:26:12;;;;;;;;;;;;;;;22.87;48.93;96401.50;5073321;28;19924;-70
2021/06/25 10:28:39;;;;;;;;;;;;;;;22.52;49.75;96400.53;5055162;28;19943;-70
2021/06/25 10:31:08;;;;;;;;;;;;;;;22.47;49.62;96397.97;5072530;28;20344;-70
2021/06/25 10:33:34;;;;;;;;;;;;;;;22.40;50.93;96405.66;5073155;28;20338;-69
2021/06/25 10:36:01;;;;;;;;;;;;;;;22.24;50.94;96411.41;5055086;28;20395;-69
2021/06/25 10:38:31;;;;;;;;;;;;;;;22.35;50.56;96408.47;5054866;28;19925;-70
2021/06/25 10:40:57;;;;;;;;;;;;;;;22.51;50.34;96407.78;5072415;28;20019;-70
2021/06/25 10:43:42;;;;;;;;;;;;;;;22.27;50.90;96418.81;5072687;28;19920;-70
2021/06/25 10:46:28;;;;;;;;;;;;;;;21.69;52.41;96416.94;5072724;28;19973;-68
2021/06/25 10:48:58;;;;;;;;;;;;;;;21.80;53.07;96414.03;5072152;28;19931;-70
2021/06/25 10:51:26;;;;;;;;;;;;;;;21.33;54.22;96411.56;5073332;28;19986;-69
2021/06/25 10:54:05;;;;;;;;;;;;;;;21.41;54.74;96423.41;5074000;28;19936;-70
2021/06/25 10:56:33;;;;;;;;;;;;;;;21.48;54.67;96418.47;5078404;28;19942;-69
2021/06/25 10:59:12;;;;;;;;;;;;;;;21.53;54.87;96409.56;5072711;28;19920;-69
2021/06/25 11:01:46;;;;;;;;;;;;;;;21.88;53.09;96415.97;5072763;28;19920;-69
2021/06/25 11:04:26;;;;;;;;;;;;;;;22.33;52.55;96413.34;5074063;28;19940;-72
2021/06/25 11:06:53;;;;;;;;;;;;;;;22.78;51.99;96416.75;5055443;28;19982;-70
2021/06/25 11:09:20;;;;;;;;;;;;;;;22.49;52.53;96414.53;5074749;28;19920;-70
2021/06/25 11:11:48;;;;;;;;;;;;;;;22.29;53.00;96413.19;5075451;28;19971;-70
2021/06/25 11:14:24;;;;;;;;;;;;;;;22.39;52.90;96420.97;5076173;28;19956;-70
2021/06/25 11:16:49;;;;;;;;;;;;;;;22.36;53.02;96426.13;5076437;28;20003;-71
2021/06/25 11:19:29;;;;;;;;;;;;;;;22.31;52.28;96426.25;5075432;28;20320;-70
2021/06/25 11:21:55;;;;;;;;;;;;;;;22.25;52.80;96429.06;5057243;28;19920;-70
2021/06/25 11:24:35;;;;;;;;;;;;;;;22.16;53.16;96417.47;5057421;28;20368;-70
2021/06/25 11:27:02;;;;;;;;;;;;;;;22.34;53.65;96425.66;5056595;28;19982;-70
2021/06/25 11:29:41;;;;;;;;;;;;;;;22.19;52.89;96416.88;5076213;28;19920;-71
2021/06/25 11:32:08;;;;;;;;;;;;;;;22.25;51.79;96431.75;5076618;28;19920;-70
2021/06/25 11:34:34;;;;;;;;;;;;;;;22.11;52.88;96431.00;5075095;28;19959;-70
2021/06/25 11:37:00;;;;;;;;;;;;;;;21.49;53.87;96436.13;5075678;28;20385;-69
2021/06/25 11:39:29;;;;;;;;;;;;;;;21.13;55.43;96434.13;5076021;28;19920;-68
2021/06/25 11:41:56;;;;;;;;;;;;;;;21.52;54.19;96434.72;5075906;28;19947;-71
2021/06/25 11:44:24;;;;;;;;;;;;;;;21.43;57.08;96426.59;5075431;28;19947;-71
2021/06/25 11:46:54;;;;;;;;;;;;;;;21.82;55.22;96425.22;5075038;28;19920;-69
2021/06/25 11:49:20;;;;;;;;;;;;;;;21.35;55.07;96430.75;5074847;28;19927;-70
2021/06/25 11:51:46;;;;;;;;;;;;;;;21.14;55.78;96433.03;5075022;28;20566;-69
2021/06/25 11:54:16;;;;;;;;;;;;;;;21.51;54.78;96435.81;5074768;28;19924;-70
2021/06/25 11:56:44;;;;;;;;;;;;;;;21.33;55.81;96426.81;5074891;28;19966;-69
2021/06/25 11:59:09;;;;;;;;;;;;;;;21.59;56.00;96429.75;5074631;28;20271;-70
2021/06/25 12:01:50;;;;;;;;;;;;;;;21.87;54.85;96425.91;5074953;28;20019;-70
2021/06/25 12:04:29;;;;;;;;;;;;;;;21.37;55.28;96417.91;5076960;28;20381;-70
2021/06/25 12:06:57;;;;;;;;;;;;;;;21.72;54.76;96418.22;5076920;28;19920;-70
2021/06/25 12:09:23;;;;;;;;;;;;;;;21.91;53.99;96415.41;5074351;28;19927;-70
2021/06/25 12:11:49;;;;;;;;;;;;;;;21.98;53.59;96426.47;5074913;28;19927;-69
2021/06/25 12:14:15;;;;;;;;;;;;;;;21.82;54.24;96422.56;5074661;28;19920;-70
2021/06/25 12:16:42;;;;;;;;;;;;;;;21.62;55.21;96427.25;5074498;28;20030;-69
2021/06/25 12:19:10;;;;;;;;;;;;;;;22.17;53.49;96429.81;5056278;28;20299;-70
2021/06/25 12:21:35;;;;;;;;;;;;;;;21.80;53.95;96430.09;5074514;28;19921;-71
2021/06/25 12:24:01;;;;;;;;;;;;;;;22.33;51.50;96426.72;5074969;28;19931;-71
2021/06/25 12:26:26;;;;;;;;;;;;;;;22.17;52.93;96423.63;5074060;28;19926;-70
2021/06/25 12:28:53;;;;;;;;;;;;;;;22.45;52.26;96422.41;5055806;28;20391;-72
2021/06/25 12:31:21;;;;;;;;;;;;;;;22.74;49.51;96421.16;5074443;28;19926;-71
2021/06/25 12:33:47;;;;;;;;;;;;;;;22.29;50.66;96423.09;5055843;28;19966;-70
2021/06/25 12:36:14;;;;;;;;;;;;;;;22.60;50.87;96421.25;5074373;28;19920;-71
2021/06/25 12:38:40;;;;;;;;;;;;;;;22.57;50.37;96416.50;5055883;28;19927;-70
2021/06/25 12:41:07;;;;;;;;;;;;;;;23.01;48.46;96422.88;5073961;28;19921;-71
2021/06/25 12:43:33;;;;;;;;;;;;;;;23.20;49.25;96422.63;5073783;28;19951;-71
2021/06/25 12:45:59;;;;;;;;;;;;;;;23.19;48.47;96416.47;5073959;28;19924;-71
2021/06/25 12:48:26;;;;;;;;;;;;;;;23.74;47.97;96415.97;5075601;28;19943;-69
2021/06/25 12:50:56;;;;;;;;;;;;;;;22.85;48.08;96422.44;5083525;28;19924;-71
2021/06/25 12:53:27;;;;;;;;;;;;;;;23.11;48.72;96414.53;5074316;28;19963;-72
2021/06/25 12:55:53;;;;;;;;;;;;;;;23.35;47.78;96421.38;5075167;28;20033;-71
2021/06/25 12:58:19;;;;;;;;;;;;;;;23.20;48.42;96414.56;5074368;28;20466;-70
2021/06/25 13:00:49;;;;;;;;;;;;;;;23.35;48.21;96413.34;5074503;28;20015;-70